createdAt,value
2018-12-04T00:00:37.560Z,20.70
2018-12-04T00:01:13.368Z,20.65
2018-12-04T00:01:49.091Z,20.73
2018-12-04T00:02:24.870Z,20.68
2018-12-04T00:03:00.773Z,20.64
2018-12-04T00:03:36.729Z,20.68
2018-12-04T00:04:12.629Z,21.12
2018-12-04T00:04:48.260Z,20.63
2018-12-04T00:05:24.326Z,20.60
2018-12-04T00:06:00.405Z,20.64
2018-12-04T00:06:36.132Z,20.65
2018-12-04T00:07:12.302Z,20.69
2018-12-04T00:07:47.935Z,20.68
2018-12-04T00:08:23.768Z,20.71
2018-12-04T00:08:59.200Z,20.72
2018-12-04T00:09:35.130Z,20.64
2018-12-04T00:10:10.930Z,20.75
2018-12-04T00:10:46.751Z,20.50
2018-12-04T00:11:22.540Z,20.64
2018-12-04T00:11:58.480Z,20.66
2018-12-04T00:12:36.210Z,20.60
2018-12-04T00:13:11.979Z,20.69
2018-12-04T00:13:47.642Z,20.58
2018-12-04T00:14:23.329Z,20.55
2018-12-04T00:14:59.124Z,20.60
2018-12-04T00:15:35.110Z,20.50
2018-12-04T00:16:11.055Z,20.44
2018-12-04T00:16:46.877Z,20.43
2018-12-04T00:17:23.190Z,20.46
2018-12-04T00:17:59.336Z,20.56
2018-12-04T00:18:35.533Z,20.45
2018-12-04T00:19:11.260Z,20.51
2018-12-04T00:19:47.209Z,20.48
2018-12-04T00:20:22.900Z,20.53
2018-12-04T00:20:58.861Z,20.47
2018-12-04T00:21:35.020Z,20.44
2018-12-04T00:22:11.073Z,20.44
2018-12-04T00:22:46.928Z,20.45
2018-12-04T00:23:22.697Z,20.36
2018-12-04T00:23:58.662Z,20.21
2018-12-04T00:24:34.277Z,20.30
2018-12-04T00:25:10.715Z,20.35
2018-12-04T00:25:46.493Z,20.41
2018-12-04T00:26:22.193Z,20.30
2018-12-04T00:26:57.972Z,20.55
2018-12-04T00:27:33.787Z,20.37
2018-12-04T00:28:09.582Z,20.53
2018-12-04T00:28:45.289Z,20.40
2018-12-04T00:29:21.137Z,20.49
2018-12-04T00:29:57.120Z,20.44
2018-12-04T00:30:32.711Z,20.56
2018-12-04T00:31:08.929Z,20.26
2018-12-04T00:31:44.678Z,20.28
2018-12-04T00:32:20.551Z,20.44
2018-12-04T00:32:56.707Z,20.28
2018-12-04T00:33:32.554Z,20.39
2018-12-04T00:34:08.448Z,20.38
2018-12-04T00:34:44.828Z,20.47
2018-12-04T00:35:20.672Z,20.57
2018-12-04T00:35:56.577Z,20.41
2018-12-04T00:36:32.338Z,20.52
2018-12-04T00:37:08.119Z,20.45
2018-12-04T00:37:44.050Z,20.27
2018-12-04T00:38:19.705Z,20.42
2018-12-04T00:38:55.327Z,20.16
2018-12-04T00:39:31.042Z,20.16
2018-12-04T00:40:08.288Z,20.32
2018-12-04T00:40:44.117Z,20.38
2018-12-04T00:41:20.181Z,20.21
2018-12-04T00:41:56.304Z,20.29
2018-12-04T00:42:32.457Z,20.14
2018-12-04T00:43:08.469Z,20.23
2018-12-04T00:43:44.348Z,20.26
2018-12-04T00:44:20.139Z,20.29
2018-12-04T00:44:56.148Z,20.11
2018-12-04T00:45:31.996Z,20.41
2018-12-04T00:46:07.690Z,20.21
2018-12-04T00:46:43.505Z,20.34
2018-12-04T00:47:19.250Z,20.26
2018-12-04T00:47:54.889Z,20.02
2018-12-04T00:48:30.985Z,20.17
2018-12-04T00:49:06.635Z,20.22
2018-12-04T00:49:42.375Z,19.99
2018-12-04T00:50:18.697Z,20.03
2018-12-04T00:50:54.842Z,20.20
2018-12-04T00:51:30.880Z,20.05
2018-12-04T00:52:06.759Z,20.17
2018-12-04T00:52:42.427Z,20.23
2018-12-04T00:53:18.291Z,20.15
2018-12-04T00:53:53.920Z,20.18
2018-12-04T00:54:29.998Z,20.12
2018-12-04T00:55:06.304Z,20.33
2018-12-04T00:55:42.414Z,20.21
2018-12-04T00:56:18.249Z,20.10
2018-12-04T00:56:54.117Z,19.86
2018-12-04T00:57:30.149Z,19.95
2018-12-04T00:58:06.170Z,20.07
2018-12-04T00:58:42.022Z,20.16
2018-12-04T00:59:19.005Z,20.40
2018-12-04T00:59:54.674Z,20.22
2018-12-04T01:00:30.547Z,19.91
2018-12-04T01:01:06.518Z,19.81
2018-12-04T01:01:42.285Z,19.99
2018-12-04T01:02:18.380Z,19.94
2018-12-04T01:02:54.108Z,19.98
2018-12-04T01:03:30.094Z,20.01
2018-12-04T01:04:05.954Z,19.96
2018-12-04T01:04:41.856Z,19.93
2018-12-04T01:05:17.705Z,19.97
2018-12-04T01:05:53.453Z,19.86
2018-12-04T01:06:29.089Z,20.06
2018-12-04T01:07:04.950Z,19.85
2018-12-04T01:07:40.712Z,19.94
2018-12-04T01:08:16.522Z,19.60
2018-12-04T01:08:52.253Z,20.12
2018-12-04T01:09:28.365Z,19.66
2018-12-04T01:10:04.068Z,19.95
2018-12-04T01:10:39.836Z,20.14
2018-12-04T01:11:15.677Z,19.93
2018-12-04T01:11:51.606Z,19.77
2018-12-04T01:12:27.518Z,19.71
2018-12-04T01:13:03.438Z,19.73
2018-12-04T01:13:39.311Z,19.66
2018-12-04T01:14:14.981Z,19.78
2018-12-04T01:14:50.752Z,19.88
2018-12-04T01:15:26.408Z,19.84
2018-12-04T01:16:02.517Z,19.84
2018-12-04T01:16:38.445Z,19.77
2018-12-04T01:17:14.198Z,20.02
2018-12-04T01:17:50.137Z,19.82
2018-12-04T01:18:25.918Z,19.95
2018-12-04T01:19:01.586Z,20.07
2018-12-04T01:19:37.267Z,19.73
2018-12-04T01:20:13.149Z,20.01
2018-12-04T01:20:48.899Z,19.96
2018-12-04T01:21:24.709Z,19.62
2018-12-04T01:22:01.174Z,19.82
2018-12-04T01:22:37.258Z,20.28
2018-12-04T01:23:13.068Z,19.96
2018-12-04T01:23:48.646Z,19.99
2018-12-04T01:24:24.647Z,19.95
2018-12-04T01:25:00.428Z,19.99
2018-12-04T01:25:36.208Z,19.90
2018-12-04T01:26:11.721Z,20.03
2018-12-04T01:26:47.476Z,20.00
2018-12-04T01:27:23.687Z,20.08
2018-12-04T01:27:59.498Z,20.40
2018-12-04T01:28:35.117Z,20.14
2018-12-04T01:29:10.897Z,20.29
2018-12-04T01:29:47.236Z,20.09
2018-12-04T01:30:23.145Z,20.03
2018-12-04T01:30:58.798Z,20.06
2018-12-04T01:31:34.569Z,19.87
2018-12-04T01:32:10.508Z,20.33
2018-12-04T01:32:46.315Z,20.28
2018-12-04T01:33:22.351Z,19.87
2018-12-04T01:33:58.216Z,20.27
2018-12-04T01:34:34.102Z,20.10
2018-12-04T01:35:10.086Z,19.60
2018-12-04T01:35:45.825Z,20.10
2018-12-04T01:36:21.483Z,20.27
2018-12-04T01:36:57.208Z,20.08
2018-12-04T01:37:33.302Z,20.50
2018-12-04T01:38:09.981Z,19.93
2018-12-04T01:38:45.851Z,20.07
2018-12-04T01:39:21.740Z,20.41
2018-12-04T01:39:57.628Z,20.21
2018-12-04T01:40:33.565Z,19.88
2018-12-04T01:41:09.141Z,20.27
2018-12-04T01:41:45.293Z,19.99
2018-12-04T01:42:21.031Z,20.24
2018-12-04T01:42:56.939Z,19.92
2018-12-04T01:43:33.001Z,20.06
2018-12-04T01:44:09.012Z,20.20
2018-12-04T01:44:44.910Z,20.23
2018-12-04T01:45:20.555Z,20.19
2018-12-04T01:45:56.432Z,19.74
2018-12-04T01:46:32.530Z,20.02
2018-12-04T01:47:08.219Z,19.97
2018-12-04T01:47:43.740Z,20.03
2018-12-04T01:48:26.101Z,20.11
2018-12-04T01:49:01.836Z,20.04
2018-12-04T01:49:37.786Z,20.21
2018-12-04T01:50:13.824Z,20.08
2018-12-04T01:50:49.872Z,20.13
2018-12-04T01:51:25.945Z,20.08
2018-12-04T01:52:01.654Z,20.30
2018-12-04T01:52:37.226Z,20.37
2018-12-04T01:53:13.075Z,20.50
2018-12-04T01:53:49.011Z,19.92
2018-12-04T01:54:24.698Z,19.91
2018-12-04T01:55:00.581Z,20.35
2018-12-04T01:55:36.415Z,20.03
2018-12-04T01:56:12.362Z,19.73
2018-12-04T01:56:48.212Z,20.02
2018-12-04T01:57:24.125Z,20.19
2018-12-04T01:57:59.876Z,20.29
2018-12-04T01:58:35.765Z,20.14
2018-12-04T01:59:11.393Z,20.13
2018-12-04T01:59:47.032Z,20.08
2018-12-04T02:00:23.021Z,20.22
2018-12-04T02:00:59.634Z,19.93
2018-12-04T02:01:35.489Z,19.78
2018-12-04T02:02:11.485Z,20.28
2018-12-04T02:02:47.431Z,20.20
2018-12-04T02:03:23.081Z,20.01
2018-12-04T02:04:00.821Z,20.20
2018-12-04T02:04:37.155Z,20.23
2018-12-04T02:05:13.096Z,19.92
2018-12-04T02:05:49.063Z,20.37
2018-12-04T02:06:25.210Z,20.20
2018-12-04T02:07:01.534Z,20.06
2018-12-04T02:07:37.295Z,20.09
2018-12-04T02:08:13.193Z,20.13
2018-12-04T02:08:48.918Z,20.12
2018-12-04T02:09:25.001Z,20.18
2018-12-04T02:10:00.601Z,19.98
2018-12-04T02:10:36.362Z,20.24
2018-12-04T02:11:12.173Z,19.82
2018-12-04T02:11:48.023Z,20.31
2018-12-04T02:12:23.805Z,20.27
2018-12-04T02:12:59.699Z,20.34
2018-12-04T02:13:35.565Z,19.88
2018-12-04T02:14:11.297Z,19.99
2018-12-04T02:14:47.112Z,19.95
2018-12-04T02:15:22.980Z,20.11
2018-12-04T02:15:59.245Z,19.93
2018-12-04T02:16:34.777Z,19.73
2018-12-04T02:17:10.588Z,19.76
2018-12-04T02:17:46.337Z,20.08
2018-12-04T02:18:22.489Z,19.94
2018-12-04T02:18:58.277Z,20.16
2018-12-04T02:19:34.292Z,20.14
2018-12-04T02:20:10.314Z,20.31
2018-12-04T02:20:45.862Z,20.27
2018-12-04T02:21:21.720Z,20.17
2018-12-04T02:21:57.626Z,20.12
2018-12-04T02:22:33.340Z,19.91
2018-12-04T02:23:09.261Z,20.14
2018-12-04T02:23:45.283Z,20.09
2018-12-04T02:24:20.982Z,20.06
2018-12-04T02:24:56.666Z,19.92
2018-12-04T02:25:32.596Z,19.75
2018-12-04T02:26:08.457Z,20.01
2018-12-04T02:26:44.336Z,20.36
2018-12-04T02:27:20.089Z,20.10
2018-12-04T02:27:55.880Z,20.37
2018-12-04T02:28:36.660Z,20.22
2018-12-04T02:29:12.452Z,20.01
2018-12-04T02:29:48.652Z,20.26
2018-12-04T02:30:24.315Z,20.20
2018-12-04T02:31:00.227Z,20.04
2018-12-04T02:31:36.498Z,20.12
2018-12-04T02:32:12.609Z,19.86
2018-12-04T02:32:48.576Z,19.73
2018-12-04T02:33:24.723Z,19.99
2018-12-04T02:34:01.107Z,19.89
2018-12-04T02:34:37.077Z,20.01
2018-12-04T02:35:13.150Z,19.88
2018-12-04T02:35:49.224Z,20.04
2018-12-04T02:36:25.098Z,19.86
2018-12-04T02:37:01.046Z,19.98
2018-12-04T02:37:37.104Z,19.79
2018-12-04T02:38:13.109Z,19.95
2018-12-04T02:38:49.182Z,19.81
2018-12-04T02:39:25.298Z,19.85
2018-12-04T02:40:01.184Z,19.78
2018-12-04T02:40:37.282Z,19.82
2018-12-04T02:41:13.112Z,19.61
2018-12-04T02:41:48.781Z,19.93
2018-12-04T02:42:27.757Z,20.03
2018-12-04T02:43:03.399Z,19.81
2018-12-04T02:43:39.345Z,19.85
2018-12-04T02:44:15.156Z,19.87
2018-12-04T02:44:51.404Z,19.99
2018-12-04T02:45:27.321Z,19.77
2018-12-04T02:46:03.130Z,19.71
2018-12-04T02:46:39.111Z,19.70
2018-12-04T02:47:14.781Z,19.78
2018-12-04T02:47:50.751Z,19.75
2018-12-04T02:48:27.064Z,20.42
2018-12-04T02:49:03.735Z,19.86
2018-12-04T02:49:39.754Z,19.93
2018-12-04T02:50:22.609Z,19.86
2018-12-04T02:50:58.388Z,19.93
2018-12-04T02:51:34.307Z,19.90
2018-12-04T02:52:10.212Z,20.34
2018-12-04T02:52:45.861Z,19.84
2018-12-04T02:53:21.688Z,19.71
2018-12-04T02:53:57.355Z,19.69
2018-12-04T02:54:32.986Z,20.09
2018-12-04T02:55:08.691Z,19.80
2018-12-04T02:55:44.303Z,19.95
2018-12-04T02:56:20.133Z,19.92
2018-12-04T02:56:55.781Z,19.99
2018-12-04T02:57:31.918Z,19.84
2018-12-04T02:58:07.791Z,19.51
2018-12-04T02:58:43.526Z,19.79
2018-12-04T02:59:19.212Z,19.84
2018-12-04T02:59:55.217Z,19.86
2018-12-04T03:00:31.512Z,19.78
2018-12-04T03:01:07.558Z,19.67
2018-12-04T03:01:43.207Z,19.89
2018-12-04T03:02:19.190Z,19.87
2018-12-04T03:02:55.458Z,19.79
2018-12-04T03:03:31.985Z,19.65
2018-12-04T03:04:08.112Z,19.80
2018-12-04T03:04:43.789Z,19.39
2018-12-04T03:05:19.620Z,19.48
2018-12-04T03:05:55.388Z,19.78
2018-12-04T03:06:31.353Z,19.72
2018-12-04T03:07:07.278Z,19.64
2018-12-04T03:07:43.265Z,20.11
2018-12-04T03:08:18.854Z,19.83
2018-12-04T03:08:54.786Z,20.10
2018-12-04T03:09:31.211Z,19.93
2018-12-04T03:10:08.345Z,20.01
2018-12-04T03:10:44.366Z,19.62
2018-12-04T03:11:20.251Z,19.88
2018-12-04T03:11:55.753Z,19.94
2018-12-04T03:12:31.534Z,20.05
2018-12-04T03:13:06.304Z,20.01
2018-12-04T03:13:42.111Z,19.67
2018-12-04T03:14:17.802Z,19.73
2018-12-04T03:14:53.360Z,19.99
2018-12-04T03:15:29.250Z,19.91
2018-12-04T03:16:05.118Z,20.17
2018-12-04T03:16:41.157Z,19.66
2018-12-04T03:17:16.921Z,19.72
2018-12-04T03:17:52.624Z,20.21
2018-12-04T03:18:28.359Z,19.87
2018-12-04T03:19:04.129Z,19.57
2018-12-04T03:19:39.910Z,20.10
2018-12-04T03:20:15.828Z,20.25
2018-12-04T03:20:51.485Z,20.34
2018-12-04T03:21:27.497Z,20.23
2018-12-04T03:22:03.631Z,20.08
2018-12-04T03:22:39.870Z,19.46
2018-12-04T03:23:15.630Z,19.52
2018-12-04T03:23:51.461Z,19.92
2018-12-04T03:24:27.246Z,19.94
2018-12-04T03:25:02.943Z,19.89
2018-12-04T03:25:38.459Z,19.90
2018-12-04T03:26:14.336Z,19.85
2018-12-04T03:26:50.126Z,19.81
2018-12-04T03:27:26.163Z,19.36
2018-12-04T03:28:02.097Z,19.74
2018-12-04T03:28:37.862Z,19.68
2018-12-04T03:29:13.690Z,19.70
2018-12-04T03:29:49.560Z,19.68
2018-12-04T03:30:25.615Z,19.80
2018-12-04T03:31:01.399Z,19.80
2018-12-04T03:31:37.279Z,19.94
2018-12-04T03:32:12.968Z,19.95
2018-12-04T03:32:48.719Z,20.20
2018-12-04T03:33:34.785Z,19.68
2018-12-04T03:34:10.498Z,20.15
2018-12-04T03:34:46.282Z,19.84
2018-12-04T03:35:22.162Z,19.68
2018-12-04T03:35:58.401Z,20.05
2018-12-04T03:36:34.093Z,19.55
2018-12-04T03:37:09.775Z,19.89
2018-12-04T03:37:45.448Z,19.73
2018-12-04T03:38:21.366Z,20.21
2018-12-04T03:38:56.963Z,19.79
2018-12-04T03:39:33.154Z,20.36
2018-12-04T03:40:11.325Z,20.12
2018-12-04T03:40:47.295Z,19.67
2018-12-04T03:41:23.381Z,20.02
2018-12-04T03:41:59.488Z,19.50
2018-12-04T03:42:35.400Z,19.72
2018-12-04T03:43:11.087Z,20.10
2018-12-04T03:43:46.679Z,20.01
2018-12-04T03:44:22.284Z,19.81
2018-12-04T03:44:58.155Z,20.11
2018-12-04T03:45:34.130Z,19.65
2018-12-04T03:46:10.017Z,20.03
2018-12-04T03:46:48.998Z,19.80
2018-12-04T03:47:25.499Z,20.20
2018-12-04T03:48:01.629Z,20.16
2018-12-04T03:48:37.330Z,20.26
2018-12-04T03:49:13.071Z,19.91
2018-12-04T03:49:48.798Z,19.81
2018-12-04T03:50:24.621Z,20.04
2018-12-04T03:51:00.496Z,20.27
2018-12-04T03:51:36.363Z,19.82
2018-12-04T03:52:12.129Z,20.20
2018-12-04T03:52:48.140Z,19.58
2018-12-04T03:53:23.866Z,20.33
2018-12-04T03:53:59.567Z,19.94
2018-12-04T03:54:35.249Z,19.98
2018-12-04T03:55:11.159Z,20.52
2018-12-04T03:55:47.059Z,20.10
2018-12-04T03:56:22.792Z,20.01
2018-12-04T03:56:58.432Z,19.62
2018-12-04T03:57:34.213Z,19.89
2018-12-04T03:58:09.949Z,20.13
2018-12-04T03:58:45.764Z,20.12
2018-12-04T03:59:21.704Z,19.74
2018-12-04T03:59:57.656Z,19.85
2018-12-04T04:00:33.628Z,20.13
2018-12-04T04:01:09.304Z,19.94
2018-12-04T04:01:44.909Z,19.94
2018-12-04T04:02:20.761Z,19.76
2018-12-04T04:02:56.639Z,20.10
2018-12-04T04:03:32.446Z,20.07
2018-12-04T04:04:08.363Z,20.07
2018-12-04T04:04:44.102Z,20.22
2018-12-04T04:05:21.280Z,19.45
2018-12-04T04:05:57.022Z,19.27
2018-12-04T04:06:32.827Z,19.16
2018-12-04T04:07:08.465Z,19.77
2018-12-04T04:07:44.661Z,19.66
2018-12-04T04:08:20.195Z,19.70
2018-12-04T04:08:56.112Z,19.54
2018-12-04T04:09:31.907Z,19.41
2018-12-04T04:10:08.360Z,19.47
2018-12-04T04:10:44.275Z,19.69
2018-12-04T04:11:19.945Z,19.54
2018-12-04T04:11:55.677Z,19.43
2018-12-04T04:12:31.604Z,19.52
2018-12-04T04:13:07.373Z,19.13
2018-12-04T04:13:43.410Z,19.44
2018-12-04T04:14:19.299Z,19.22
2018-12-04T04:14:55.147Z,19.60
2018-12-04T04:15:31.108Z,19.34
2018-12-04T04:16:07.039Z,19.33
2018-12-04T04:16:42.648Z,19.39
2018-12-04T04:17:18.430Z,19.44
2018-12-04T04:17:54.740Z,19.20
2018-12-04T04:18:30.939Z,19.80
2018-12-04T04:19:06.953Z,19.16
2018-12-04T04:19:42.842Z,19.00
2018-12-04T04:20:18.805Z,19.45
2018-12-04T04:20:54.648Z,19.46
2018-12-04T04:21:30.427Z,19.76
2018-12-04T04:22:06.399Z,19.15
2018-12-04T04:22:42.282Z,18.92
2018-12-04T04:23:18.202Z,19.76
2018-12-04T04:23:53.925Z,19.31
2018-12-04T04:24:29.713Z,19.15
2018-12-04T04:25:05.863Z,19.29
2018-12-04T04:25:41.794Z,19.88
2018-12-04T04:26:17.503Z,19.81
2018-12-04T04:26:53.399Z,19.70
2018-12-04T04:27:29.045Z,19.75
2018-12-04T04:28:05.003Z,19.47
2018-12-04T04:28:41.029Z,19.12
2018-12-04T04:29:16.808Z,19.12
2018-12-04T04:29:52.512Z,19.27
2018-12-04T04:30:28.454Z,19.22
2018-12-04T04:31:04.353Z,19.71
2018-12-04T04:31:40.140Z,19.75
2018-12-04T04:32:15.969Z,19.67
2018-12-04T04:32:51.672Z,19.11
2018-12-04T04:33:27.637Z,19.71
2018-12-04T04:34:03.367Z,19.11
2018-12-04T04:34:39.054Z,19.10
2018-12-04T04:35:14.898Z,19.06
2018-12-04T04:35:50.802Z,19.54
2018-12-04T04:36:26.499Z,19.63
2018-12-04T04:37:02.194Z,19.07
2018-12-04T04:37:38.164Z,19.20
2018-12-04T04:38:14.019Z,19.54
2018-12-04T04:38:49.926Z,19.01
2018-12-04T04:39:25.823Z,19.08
2018-12-04T04:40:01.618Z,19.67
2018-12-04T04:40:37.452Z,19.02
2018-12-04T04:41:13.464Z,19.41
2018-12-04T04:41:49.365Z,19.56
2018-12-04T04:42:25.121Z,19.68
2018-12-04T04:43:00.962Z,19.49
2018-12-04T04:43:36.761Z,19.25
2018-12-04T04:44:12.557Z,18.77
2018-12-04T04:44:48.279Z,19.50
2018-12-04T04:45:24.175Z,19.14
2018-12-04T04:45:59.874Z,19.45
2018-12-04T04:46:35.648Z,19.05
2018-12-04T04:47:11.505Z,19.62
2018-12-04T04:47:47.248Z,19.71
2018-12-04T04:48:22.815Z,19.29
2018-12-04T04:48:58.739Z,19.07
2018-12-04T04:49:34.611Z,19.20
2018-12-04T04:50:10.412Z,19.19
2018-12-04T04:50:45.947Z,19.07
2018-12-04T04:51:21.856Z,19.54
2018-12-04T04:51:57.429Z,19.53
2018-12-04T04:52:33.191Z,18.92
2018-12-04T04:53:08.872Z,19.25
2018-12-04T04:53:44.682Z,19.82
2018-12-04T04:54:20.406Z,19.14
2018-12-04T04:54:56.161Z,19.09
2018-12-04T04:55:31.820Z,19.44
2018-12-04T04:56:07.628Z,19.17
2018-12-04T04:56:43.479Z,19.65
2018-12-04T04:57:19.434Z,19.20
2018-12-04T04:57:55.135Z,19.97
2018-12-04T04:58:30.755Z,19.97
2018-12-04T04:59:06.498Z,19.86
2018-12-04T04:59:42.414Z,19.30
2018-12-04T05:00:18.266Z,19.67
2018-12-04T05:00:54.079Z,19.63
2018-12-04T05:01:30.204Z,19.85
2018-12-04T05:02:05.704Z,19.24
2018-12-04T05:02:41.455Z,19.66
2018-12-04T05:03:17.263Z,19.26
2018-12-04T05:03:53.279Z,18.98
2018-12-04T05:04:29.266Z,19.46
2018-12-04T05:05:05.422Z,19.37
2018-12-04T05:05:42.582Z,19.57
2018-12-04T05:06:18.227Z,19.37
2018-12-04T05:06:54.264Z,20.06
2018-12-04T05:07:29.936Z,19.56
2018-12-04T05:08:05.808Z,19.28
2018-12-04T05:08:41.413Z,19.45
2018-12-04T05:09:17.248Z,19.15
2018-12-04T05:09:53.076Z,19.71
2018-12-04T05:10:28.892Z,19.17
2018-12-04T05:11:04.593Z,19.77
2018-12-04T05:11:40.287Z,19.30
2018-12-04T05:12:16.228Z,19.46
2018-12-04T05:12:52.011Z,19.45
2018-12-04T05:13:28.054Z,19.79
2018-12-04T05:14:03.806Z,19.85
2018-12-04T05:14:39.469Z,19.47
2018-12-04T05:15:15.139Z,19.21
2018-12-04T05:15:50.733Z,19.41
2018-12-04T05:16:26.902Z,19.67
2018-12-04T05:17:02.613Z,19.08
2018-12-04T05:17:38.480Z,19.59
2018-12-04T05:18:14.441Z,19.93
2018-12-04T05:18:50.189Z,20.14
2018-12-04T05:19:25.992Z,19.55
2018-12-04T05:20:01.793Z,19.57
2018-12-04T05:20:37.775Z,19.68
2018-12-04T05:21:13.294Z,19.96
2018-12-04T05:21:49.106Z,19.56
2018-12-04T05:22:24.921Z,19.96
2018-12-04T05:23:00.753Z,20.03
2018-12-04T05:23:36.586Z,19.52
2018-12-04T05:24:12.186Z,20.20
2018-12-04T05:24:47.927Z,19.51
2018-12-04T05:25:23.443Z,19.49
2018-12-04T05:25:59.709Z,20.00
2018-12-04T05:26:35.307Z,19.83
2018-12-04T05:27:10.929Z,19.47
2018-12-04T05:27:46.852Z,19.34
2018-12-04T05:28:23.205Z,19.91
2018-12-04T05:28:59.403Z,19.53
2018-12-04T05:29:35.355Z,19.95
2018-12-04T05:30:11.302Z,19.67
2018-12-04T05:30:47.150Z,19.67
2018-12-04T05:31:22.909Z,19.66
2018-12-04T05:31:58.719Z,19.86
2018-12-04T05:32:34.453Z,19.66
2018-12-04T05:33:10.266Z,19.85
2018-12-04T05:33:45.920Z,19.90
2018-12-04T05:34:21.614Z,19.38
2018-12-04T05:34:57.625Z,19.71
2018-12-04T05:35:33.508Z,19.17
2018-12-04T05:36:09.410Z,19.79
2018-12-04T05:36:45.005Z,19.39
2018-12-04T05:37:20.722Z,19.59
2018-12-04T05:37:56.663Z,19.23
2018-12-04T05:38:32.643Z,19.47
2018-12-04T05:39:09.392Z,19.61
2018-12-04T05:39:45.133Z,19.31
2018-12-04T05:40:20.932Z,19.45
2018-12-04T05:40:56.826Z,19.58
2018-12-04T05:41:32.537Z,19.77
2018-12-04T05:42:08.364Z,19.99
2018-12-04T05:42:44.262Z,19.21
2018-12-04T05:43:19.913Z,19.82
2018-12-04T05:43:55.507Z,19.67
2018-12-04T05:44:31.408Z,19.59
2018-12-04T05:45:08.542Z,19.45
2018-12-04T05:45:44.148Z,19.59
2018-12-04T05:46:20.055Z,19.50
2018-12-04T05:46:55.820Z,20.03
2018-12-04T05:47:31.623Z,19.28
2018-12-04T05:48:07.331Z,19.44
2018-12-04T05:48:43.368Z,19.31
2018-12-04T05:49:19.125Z,19.73
2018-12-04T05:49:54.964Z,19.61
2018-12-04T05:50:30.798Z,19.77
2018-12-04T05:51:06.761Z,19.45
2018-12-04T05:51:42.533Z,19.24
2018-12-04T05:52:18.516Z,19.34
2018-12-04T05:53:04.145Z,19.06
2018-12-04T05:53:40.097Z,19.25
2018-12-04T05:54:16.928Z,19.62
2018-12-04T05:54:52.612Z,19.81
2018-12-04T05:55:28.143Z,19.72
2018-12-04T05:56:04.032Z,19.74
2018-12-04T05:56:39.929Z,19.37
2018-12-04T05:57:15.807Z,19.25
2018-12-04T05:57:51.570Z,19.67
2018-12-04T05:58:27.404Z,19.74
2018-12-04T05:59:03.346Z,19.31
2018-12-04T05:59:39.254Z,19.80
2018-12-04T06:00:15.221Z,18.96
2018-12-04T06:00:50.893Z,19.27
2018-12-04T06:01:26.757Z,19.26
2018-12-04T06:02:02.594Z,19.25
2018-12-04T06:02:38.526Z,19.83
2018-12-04T06:03:14.228Z,20.11
2018-12-04T06:03:50.001Z,19.61
2018-12-04T06:04:25.578Z,19.98
2018-12-04T06:05:01.248Z,19.71
2018-12-04T06:05:37.048Z,19.40
2018-12-04T06:06:12.831Z,19.89
2018-12-04T06:06:48.617Z,19.67
2018-12-04T06:07:24.530Z,19.87
2018-12-04T06:08:00.334Z,19.28
2018-12-04T06:08:35.942Z,19.62
2018-12-04T06:09:11.783Z,19.86
2018-12-04T06:10:02.452Z,19.41
2018-12-04T06:10:38.165Z,19.77
2018-12-04T06:11:13.807Z,19.80
2018-12-04T06:11:49.547Z,19.21
2018-12-04T06:12:25.186Z,20.04
2018-12-04T06:13:01.144Z,19.96
2018-12-04T06:13:36.692Z,19.62
2018-12-04T06:14:12.216Z,19.88
2018-12-04T06:14:48.254Z,19.98
2018-12-04T06:15:23.726Z,20.15
2018-12-04T06:15:59.447Z,19.63
2018-12-04T06:16:35.112Z,19.49
2018-12-04T06:17:10.749Z,19.60
2018-12-04T06:17:46.680Z,19.39
2018-12-04T06:18:22.721Z,20.14
2018-12-04T06:18:58.428Z,19.76
2018-12-04T06:19:34.245Z,19.40
2018-12-04T06:20:09.977Z,19.35
2018-12-04T06:20:45.571Z,19.44
2018-12-04T06:21:21.143Z,19.46
2018-12-04T06:21:56.891Z,19.70
2018-12-04T06:22:32.732Z,20.03
2018-12-04T06:23:08.247Z,19.88
2018-12-04T06:23:44.026Z,19.37
2018-12-04T06:24:19.509Z,19.07
2018-12-04T06:24:55.549Z,19.81
2018-12-04T06:25:31.516Z,19.79
2018-12-04T06:26:07.142Z,19.95
2018-12-04T06:26:42.879Z,19.32
2018-12-04T06:27:19.026Z,19.70
2018-12-04T06:27:54.731Z,19.74
2018-12-04T06:28:30.395Z,19.55
2018-12-04T06:29:06.194Z,19.44
2018-12-04T06:29:41.969Z,19.88
2018-12-04T06:30:17.686Z,19.54
2018-12-04T06:30:53.468Z,19.87
2018-12-04T06:31:29.008Z,19.69
2018-12-04T06:32:05.050Z,19.89
2018-12-04T06:32:41.060Z,19.85
2018-12-04T06:33:16.774Z,20.09
2018-12-04T06:33:52.493Z,20.00
2018-12-04T06:34:28.233Z,20.03
2018-12-04T06:35:03.991Z,19.67
2018-12-04T06:35:39.735Z,19.88
2018-12-04T06:36:15.388Z,19.73
2018-12-04T06:36:51.056Z,19.48
2018-12-04T06:37:26.830Z,19.79
2018-12-04T06:38:02.531Z,19.37
2018-12-04T06:38:38.487Z,19.42
2018-12-04T06:39:14.202Z,19.57
2018-12-04T06:39:49.947Z,19.60
2018-12-04T06:40:25.803Z,19.80
2018-12-04T06:41:01.551Z,20.25
2018-12-04T06:41:37.783Z,19.86
2018-12-04T06:42:13.667Z,19.83
2018-12-04T06:42:49.548Z,20.26
2018-12-04T06:43:25.403Z,19.72
2018-12-04T06:44:01.114Z,20.25
2018-12-04T06:44:36.921Z,19.64
2018-12-04T06:45:12.689Z,19.76
2018-12-04T06:45:48.438Z,19.74
2018-12-04T06:46:24.672Z,19.50
2018-12-04T06:47:00.053Z,19.49
2018-12-04T06:47:36.055Z,19.60
2018-12-04T06:48:11.683Z,19.38
2018-12-04T06:48:47.600Z,19.50
2018-12-04T06:49:23.206Z,19.54
2018-12-04T06:49:58.941Z,19.61
2018-12-04T06:50:34.819Z,19.51
2018-12-04T06:51:11.070Z,19.32
2018-12-04T06:51:46.973Z,19.51
2018-12-04T06:52:22.930Z,19.94
2018-12-04T06:52:58.700Z,19.60
2018-12-04T06:53:34.352Z,19.58
2018-12-04T06:54:10.161Z,20.20
2018-12-04T06:54:45.899Z,20.10
2018-12-04T06:55:21.555Z,19.98
2018-12-04T06:55:57.658Z,19.51
2018-12-04T06:56:33.518Z,19.40
2018-12-04T06:57:09.092Z,19.80
2018-12-04T06:57:44.798Z,19.34
2018-12-04T06:58:20.465Z,19.53
2018-12-04T06:58:56.402Z,19.90
2018-12-04T06:59:32.509Z,19.83
2018-12-04T07:00:09.256Z,19.91
2018-12-04T07:00:45.720Z,19.93
2018-12-04T07:01:21.644Z,19.83
2018-12-04T07:01:57.348Z,19.13
2018-12-04T07:02:33.342Z,19.51
2018-12-04T07:03:09.190Z,19.97
2018-12-04T07:03:44.816Z,20.01
2018-12-04T07:04:20.444Z,19.60
2018-12-04T07:04:56.108Z,19.49
2018-12-04T07:05:32.059Z,19.94
2018-12-04T07:06:07.944Z,19.75
2018-12-04T07:06:44.007Z,19.88
2018-12-04T07:07:19.874Z,19.92
2018-12-04T07:07:55.805Z,19.97
2018-12-04T07:08:31.429Z,20.02
2018-12-04T07:09:10.330Z,19.99
2018-12-04T07:09:46.035Z,19.71
2018-12-04T07:10:21.636Z,19.82
2018-12-04T07:10:57.352Z,19.85
2018-12-04T07:11:32.947Z,20.06
2018-12-04T07:12:08.687Z,19.73
2018-12-04T07:12:44.772Z,19.81
2018-12-04T07:13:20.532Z,20.07
2018-12-04T07:13:56.412Z,19.92
2018-12-04T07:14:32.377Z,20.05
2018-12-04T07:15:08.958Z,20.19
2018-12-04T07:15:44.909Z,20.18
2018-12-04T07:16:20.640Z,20.08
2018-12-04T07:16:56.502Z,20.09
2018-12-04T07:17:32.462Z,20.27
2018-12-04T07:18:08.311Z,19.99
2018-12-04T07:18:43.897Z,20.24
2018-12-04T07:19:19.467Z,20.08
2018-12-04T07:19:55.328Z,20.13
2018-12-04T07:20:31.122Z,19.73
2018-12-04T07:21:06.889Z,19.85
2018-12-04T07:21:42.719Z,19.87
2018-12-04T07:22:18.558Z,19.90
2018-12-04T07:22:54.599Z,20.25
2018-12-04T07:23:30.082Z,19.93
2018-12-04T07:24:06.029Z,19.94
2018-12-04T07:24:41.748Z,20.24
2018-12-04T07:25:17.879Z,20.24
2018-12-04T07:25:53.829Z,19.68
2018-12-04T07:26:29.769Z,20.27
2018-12-04T07:27:05.476Z,19.73
2018-12-04T07:27:41.647Z,20.34
2018-12-04T07:28:17.424Z,19.84
2018-12-04T07:28:53.156Z,19.93
2018-12-04T07:29:28.542Z,19.95
2018-12-04T07:30:04.358Z,19.63
2018-12-04T07:30:40.171Z,19.78
2018-12-04T07:31:16.162Z,20.13
2018-12-04T07:31:51.791Z,19.76
2018-12-04T07:32:28.309Z,20.00
2018-12-04T07:33:04.297Z,19.87
2018-12-04T07:33:40.136Z,19.98
2018-12-04T07:34:16.219Z,20.01
2018-12-04T07:34:51.713Z,19.56
2018-12-04T07:35:27.469Z,19.73
2018-12-04T07:36:03.323Z,19.92
2018-12-04T07:36:39.182Z,20.03
2018-12-04T07:37:15.122Z,20.25
2018-12-04T07:37:50.819Z,20.29
2018-12-04T07:38:26.610Z,19.66
2018-12-04T07:39:02.197Z,20.11
2018-12-04T07:39:37.828Z,20.03
2018-12-04T07:40:13.591Z,19.53
2018-12-04T07:40:49.385Z,19.95
2018-12-04T07:41:25.063Z,20.05
2018-12-04T07:42:01.110Z,20.15
2018-12-04T07:42:36.796Z,19.74
2018-12-04T07:43:12.766Z,20.32